Foxfield, Colorado
Current Conditions -  °F | °C
As of 4:58 AM on Monday 26 Jan 2015 (Local Time) from KBKF Reporting Station
Few Clouds Few Clouds  
Wind Chill: 33°   Ceiling: Unl
Heat Index: 40°   Visibility: 10mi
Dew Point: 23°   Wind: 13mph
Humidity: 50%   Direction: 180°S
Pressure: 30.23"   Gusts: NA
Location:  39.6109°N, 104.687°W
Report Text: KBKF 261158Z 18011KT 10SM FEW220 05/M05 A3023 RMK AO2A SLP213 T00471050 10064 20039 53001
Loading
Personal Weather Stations






























Interactive Weather Map New forecast layout! Learn more

10-Day Weather Forecast

Advertisements
Track Severe Weather on mobile